sensor_id;sensor_type;location;lat;lon;timestamp;temperature;humidity
12849;DHT22;6493;50.928;7.172;2024-01-15T00:01:57;-2.10;64.40
12849;DHT22;6493;50.928;7.172;2024-01-15T00:07:00;-2.10;64.30
12849;DHT22;6493;50.928;7.172;2024-01-15T00:12:05;-2.10;64.20
12849;DHT22;6493;50.928;7.172;2024-01-15T00:17:10;-2.10;64.20
12849;DHT22;6493;50.928;7.172;2024-01-15T00:22:14;-2.10;64.00
12849;DHT22;6493;50.928;7.172;2024-01-15T00:27:17;-2.10;64.20
12849;DHT22;6493;50.928;7.172;2024-01-15T00:32:22;-2.10;64.30
12849;DHT22;6493;50.928;7.172;2024-01-15T00:37:26;-2.10;64.40
12849;DHT22;6493;50.928;7.172;2024-01-15T00:42:30;-2.10;64.40
12849;DHT22;6493;50.928;7.172;2024-01-15T00:47:35;-2.10;64.90
12849;DHT22;6493;50.928;7.172;2024-01-15T00:52:39;-2.20;64.30
12849;DHT22;6493;50.928;7.172;2024-01-15T00:57:42;-2.20;64.60
12849;DHT22;6493;50.928;7.172;2024-01-15T01:02:47;-2.20;64.60
12849;DHT22;6493;50.928;7.172;2024-01-15T01:07:51;-2.20;64.60
12849;DHT22;6493;50.928;7.172;2024-01-15T01:12:55;-2.20;64.70
12849;DHT22;6493;50.928;7.172;2024-01-15T01:17:59;-2.20;64.80
12849;DHT22;6493;50.928;7.172;2024-01-15T01:23:03;-2.20;64.80
12849;DHT22;6493;50.928;7.172;2024-01-15T01:28:07;-2.20;65.00
12849;DHT22;6493;50.928;7.172;2024-01-15T01:33:12;-2.20;65.00
12849;DHT22;6493;50.928;7.172;2024-01-15T01:38:16;-2.20;64.70
12849;DHT22;6493;50.928;7.172;2024-01-15T01:43:20;-2.30;64.70
12849;DHT22;6493;50.928;7.172;2024-01-15T01:48:25;-2.20;65.20
12849;DHT22;6493;50.928;7.172;2024-01-15T01:53:30;-2.20;65.10
12849;DHT22;6493;50.928;7.172;2024-01-15T01:58:34;-2.20;65.10
12849;DHT22;6493;50.928;7.172;2024-01-15T02:03:39;-2.20;65.10
12849;DHT22;6493;50.928;7.172;2024-01-15T02:08:44;-2.20;64.90
12849;DHT22;6493;50.928;7.172;2024-01-15T02:13:47;-2.20;65.10
12849;DHT22;6493;50.928;7.172;2024-01-15T02:18:52;-2.20;65.20
12849;DHT22;6493;50.928;7.172;2024-01-15T02:23:58;-2.20;65.00
12849;DHT22;6493;50.928;7.172;2024-01-15T02:29:01;-2.20;65.50
12849;DHT22;6493;50.928;7.172;2024-01-15T02:34:05;-2.20;65.30
12849;DHT22;6493;50.928;7.172;2024-01-15T02:39:10;-2.20;65.10
12849;DHT22;6493;50.928;7.172;2024-01-15T02:44:14;-2.20;65.10
12849;DHT22;6493;50.928;7.172;2024-01-15T02:49:17;-2.20;65.20
12849;DHT22;6493;50.928;7.172;2024-01-15T02:54:22;-2.20;65.20
12849;DHT22;6493;50.928;7.172;2024-01-15T02:59:26;-2.20;65.50
12849;DHT22;6493;50.928;7.172;2024-01-15T03:04:29;-2.10;65.50
12849;DHT22;6493;50.928;7.172;2024-01-15T03:09:35;-2.10;65.30
12849;DHT22;6493;50.928;7.172;2024-01-15T03:14:38;-2.10;65.50
12849;DHT22;6493;50.928;7.172;2024-01-15T03:19:42;-2.10;65.40
12849;DHT22;6493;50.928;7.172;2024-01-15T03:24:47;-2.10;65.60
12849;DHT22;6493;50.928;7.172;2024-01-15T03:29:51;-2.10;65.60
12849;DHT22;6493;50.928;7.172;2024-01-15T03:34:55;-2.10;65.60
12849;DHT22;6493;50.928;7.172;2024-01-15T03:40:00;-2.10;65.20
12849;DHT22;6493;50.928;7.172;2024-01-15T03:45:04;-2.10;65.20
12849;DHT22;6493;50.928;7.172;2024-01-15T03:50:09;-2.10;65.20
12849;DHT22;6493;50.928;7.172;2024-01-15T03:55:14;-2.00;65.30
12849;DHT22;6493;50.928;7.172;2024-01-15T04:00:18;-2.00;65.40
12849;DHT22;6493;50.928;7.172;2024-01-15T04:05:22;-2.00;65.30
12849;DHT22;6493;50.928;7.172;2024-01-15T04:10:26;-2.00;65.60
12849;DHT22;6493;50.928;7.172;2024-01-15T04:15:30;-2.00;65.60
12849;DHT22;6493;50.928;7.172;2024-01-15T04:20:34;-2.00;65.40
12849;DHT22;6493;50.928;7.172;2024-01-15T04:25:39;-2.00;65.50
12849;DHT22;6493;50.928;7.172;2024-01-15T04:30:44;-2.00;65.40
12849;DHT22;6493;50.928;7.172;2024-01-15T04:35:49;-2.00;65.40
12849;DHT22;6493;50.928;7.172;2024-01-15T04:40:54;-2.00;65.50
12849;DHT22;6493;50.928;7.172;2024-01-15T04:45:59;-2.00;65.50
12849;DHT22;6493;50.928;7.172;2024-01-15T04:51:08;-2.00;65.50
12849;DHT22;6493;50.928;7.172;2024-01-15T04:56:13;-2.00;65.50
12849;DHT22;6493;50.928;7.172;2024-01-15T05:01:17;-1.90;65.60
12849;DHT22;6493;50.928;7.172;2024-01-15T05:06:20;-1.90;65.70
12849;DHT22;6493;50.928;7.172;2024-01-15T05:11:26;-1.90;65.50
12849;DHT22;6493;50.928;7.172;2024-01-15T05:16:29;-1.90;65.50
12849;DHT22;6493;50.928;7.172;2024-01-15T05:21:33;-1.90;65.50
12849;DHT22;6493;50.928;7.172;2024-01-15T05:26:38;-1.90;65.50
12849;DHT22;6493;50.928;7.172;2024-01-15T05:31:41;-1.90;65.70
12849;DHT22;6493;50.928;7.172;2024-01-15T05:36:45;-1.90;65.80
12849;DHT22;6493;50.928;7.172;2024-01-15T05:41:51;-1.90;65.60
12849;DHT22;6493;50.928;7.172;2024-01-15T05:46:55;-1.90;65.60
12849;DHT22;6493;50.928;7.172;2024-01-15T05:51:59;-1.90;65.50
12849;DHT22;6493;50.928;7.172;2024-01-15T05:57:04;-1.90;65.50
12849;DHT22;6493;50.928;7.172;2024-01-15T06:02:08;-1.90;65.50
12849;DHT22;6493;50.928;7.172;2024-01-15T06:07:11;-1.80;65.70
12849;DHT22;6493;50.928;7.172;2024-01-15T06:12:16;-1.80;65.70
12849;DHT22;6493;50.928;7.172;2024-01-15T06:17:20;-1.90;65.60
12849;DHT22;6493;50.928;7.172;2024-01-15T06:22:23;-1.80;65.90
12849;DHT22;6493;50.928;7.172;2024-01-15T06:27:28;-1.80;65.90
12849;DHT22;6493;50.928;7.172;2024-01-15T06:32:32;-1.80;66.50
12849;DHT22;6493;50.928;7.172;2024-01-15T06:37:36;-1.80;65.90
12849;DHT22;6493;50.928;7.172;2024-01-15T06:42:41;-1.80;66.00
12849;DHT22;6493;50.928;7.172;2024-01-15T06:47:44;-1.80;65.80
12849;DHT22;6493;50.928;7.172;2024-01-15T06:52:48;-1.80;65.80
12849;DHT22;6493;50.928;7.172;2024-01-15T06:57:53;-1.80;65.90
12849;DHT22;6493;50.928;7.172;2024-01-15T07:02:57;-1.80;65.80
12849;DHT22;6493;50.928;7.172;2024-01-15T07:08:00;-1.80;65.70
12849;DHT22;6493;50.928;7.172;2024-01-15T07:13:05;-1.80;65.90
12849;DHT22;6493;50.928;7.172;2024-01-15T07:18:09;-1.80;65.80
12849;DHT22;6493;50.928;7.172;2024-01-15T07:23:13;-1.80;65.80
12849;DHT22;6493;50.928;7.172;2024-01-15T07:28:17;-1.80;65.90
12849;DHT22;6493;50.928;7.172;2024-01-15T07:33:21;-1.80;66.10
12849;DHT22;6493;50.928;7.172;2024-01-15T07:38:26;-1.80;65.90
12849;DHT22;6493;50.928;7.172;2024-01-15T07:43:31;-1.80;66.10
12849;DHT22;6493;50.928;7.172;2024-01-15T07:48:35;-1.80;66.00
12849;DHT22;6493;50.928;7.172;2024-01-15T07:53:39;-1.80;66.20
12849;DHT22;6493;50.928;7.172;2024-01-15T07:58:44;-1.80;66.00
12849;DHT22;6493;50.928;7.172;2024-01-15T08:03:47;-1.80;66.00
12849;DHT22;6493;50.928;7.172;2024-01-15T08:08:51;-1.70;66.10
12849;DHT22;6493;50.928;7.172;2024-01-15T08:13:56;-1.70;66.10
12849;DHT22;6493;50.928;7.172;2024-01-15T08:19:00;-1.70;66.80
12849;DHT22;6493;50.928;7.172;2024-01-15T08:24:04;-1.70;66.00
12849;DHT22;6493;50.928;7.172;2024-01-15T08:29:09;-1.70;66.10
12849;DHT22;6493;50.928;7.172;2024-01-15T08:34:13;-1.70;66.00
12849;DHT22;6493;50.928;7.172;2024-01-15T08:39:17;-1.70;66.00
12849;DHT22;6493;50.928;7.172;2024-01-15T08:44:23;-1.60;66.20
12849;DHT22;6493;50.928;7.172;2024-01-15T08:49:26;-1.60;66.20
12849;DHT22;6493;50.928;7.172;2024-01-15T08:54:30;-1.60;66.00
12849;DHT22;6493;50.928;7.172;2024-01-15T08:59:35;-1.60;66.00
12849;DHT22;6493;50.928;7.172;2024-01-15T09:04:39;-1.60;66.00
12849;DHT22;6493;50.928;7.172;2024-01-15T09:09:43;-1.60;66.00
12849;DHT22;6493;50.928;7.172;2024-01-15T09:14:48;-1.60;66.00
12849;DHT22;6493;50.928;7.172;2024-01-15T09:19:52;-1.60;66.00
12849;DHT22;6493;50.928;7.172;2024-01-15T09:24:56;-1.60;66.00
12849;DHT22;6493;50.928;7.172;2024-01-15T09:30:01;-1.60;66.00
12849;DHT22;6493;50.928;7.172;2024-01-15T09:35:06;-1.60;66.00
12849;DHT22;6493;50.928;7.172;2024-01-15T09:40:13;-1.60;66.20
12849;DHT22;6493;50.928;7.172;2024-01-15T09:45:18;-1.60;66.00
12849;DHT22;6493;50.928;7.172;2024-01-15T09:50:22;-1.60;66.10
12849;DHT22;6493;50.928;7.172;2024-01-15T09:55:26;-1.70;66.10
12849;DHT22;6493;50.928;7.172;2024-01-15T10:00:33;-1.70;66.10
12849;DHT22;6493;50.928;7.172;2024-01-15T10:05:39;-1.70;66.30
12849;DHT22;6493;50.928;7.172;2024-01-15T10:10:43;-1.70;66.30
12849;DHT22;6493;50.928;7.172;2024-01-15T10:15:48;-1.70;66.60
12849;DHT22;6493;50.928;7.172;2024-01-15T10:20:51;-1.70;66.90
12849;DHT22;6493;50.928;7.172;2024-01-15T10:25:57;-1.70;66.50
12849;DHT22;6493;50.928;7.172;2024-01-15T10:31:02;-1.70;66.50
12849;DHT22;6493;50.928;7.172;2024-01-15T10:36:09;-1.80;66.30
12849;DHT22;6493;50.928;7.172;2024-01-15T10:41:13;-1.70;66.50
12849;DHT22;6493;50.928;7.172;2024-01-15T10:46:19;-1.70;66.50
12849;DHT22;6493;50.928;7.172;2024-01-15T10:51:23;-1.70;66.30
12849;DHT22;6493;50.928;7.172;2024-01-15T10:56:30;-1.70;66.80
12849;DHT22;6493;50.928;7.172;2024-01-15T11:01:36;-1.70;66.70
12849;DHT22;6493;50.928;7.172;2024-01-15T11:06:44;-1.70;66.50
12849;DHT22;6493;50.928;7.172;2024-01-15T11:16:57;-1.80;67.10
12849;DHT22;6493;50.928;7.172;2024-01-15T11:22:01;-1.70;67.00
12849;DHT22;6493;50.928;7.172;2024-01-15T11:27:06;-1.70;67.40
12849;DHT22;6493;50.928;7.172;2024-01-15T11:32:11;-1.70;67.80
12849;DHT22;6493;50.928;7.172;2024-01-15T11:37:15;-1.70;66.70
12849;DHT22;6493;50.928;7.172;2024-01-15T11:42:20;-1.60;67.00
12849;DHT22;6493;50.928;7.172;2024-01-15T11:53:33;-1.60;67.10
12849;DHT22;6493;50.928;7.172;2024-01-15T11:58:40;-1.50;67.10
12849;DHT22;6493;50.928;7.172;2024-01-15T12:03:44;-1.50;66.90
12849;DHT22;6493;50.928;7.172;2024-01-15T12:09:05;-1.50;66.80
12849;DHT22;6493;50.928;7.172;2024-01-15T12:14:09;-1.50;66.90
12849;DHT22;6493;50.928;7.172;2024-01-15T12:19:14;-1.50;66.80
12849;DHT22;6493;50.928;7.172;2024-01-15T12:24:19;-1.50;66.60
12849;DHT22;6493;50.928;7.172;2024-01-15T12:29:23;-1.50;66.60
12849;DHT22;6493;50.928;7.172;2024-01-15T12:34:29;-1.50;66.70
12849;DHT22;6493;50.928;7.172;2024-01-15T12:39:35;-1.50;67.00
12849;DHT22;6493;50.928;7.172;2024-01-15T12:44:39;-1.40;67.20
12849;DHT22;6493;50.928;7.172;2024-01-15T12:49:43;-1.40;67.10
12849;DHT22;6493;50.928;7.172;2024-01-15T12:54:51;-1.30;67.10
12849;DHT22;6493;50.928;7.172;2024-01-15T12:59:55;-1.20;66.90
12849;DHT22;6493;50.928;7.172;2024-01-15T13:04:59;-1.20;66.80
12849;DHT22;6493;50.928;7.172;2024-01-15T13:10:05;-1.20;66.60
12849;DHT22;6493;50.928;7.172;2024-01-15T13:15:09;-1.20;66.70
12849;DHT22;6493;50.928;7.172;2024-01-15T13:20:15;-1.20;66.40
12849;DHT22;6493;50.928;7.172;2024-01-15T13:25:20;-1.20;66.40
12849;DHT22;6493;50.928;7.172;2024-01-15T13:30:24;-1.30;66.30
12849;DHT22;6493;50.928;7.172;2024-01-15T13:35:28;-1.30;66.20
12849;DHT22;6493;50.928;7.172;2024-01-15T13:40:33;-1.30;66.40
12849;DHT22;6493;50.928;7.172;2024-01-15T13:45:37;-1.30;66.50
12849;DHT22;6493;50.928;7.172;2024-01-15T13:50:40;-1.30;66.60
12849;DHT22;6493;50.928;7.172;2024-01-15T13:55:45;-1.40;66.30
12849;DHT22;6493;50.928;7.172;2024-01-15T14:00:50;-1.30;66.70
12849;DHT22;6493;50.928;7.172;2024-01-15T14:05:54;-1.30;66.60
12849;DHT22;6493;50.928;7.172;2024-01-15T14:10:59;-1.30;66.60
12849;DHT22;6493;50.928;7.172;2024-01-15T14:16:03;-1.30;66.50
12849;DHT22;6493;50.928;7.172;2024-01-15T14:21:07;-1.30;66.40
12849;DHT22;6493;50.928;7.172;2024-01-15T14:26:12;-1.30;66.40
12849;DHT22;6493;50.928;7.172;2024-01-15T14:31:20;-1.30;66.30
12849;DHT22;6493;50.928;7.172;2024-01-15T14:36:24;-1.30;66.30
12849;DHT22;6493;50.928;7.172;2024-01-15T14:41:29;-1.40;66.10
12849;DHT22;6493;50.928;7.172;2024-01-15T14:46:33;-1.40;66.80
12849;DHT22;6493;50.928;7.172;2024-01-15T14:51:37;-1.40;66.90
12849;DHT22;6493;50.928;7.172;2024-01-15T14:56:42;-1.50;66.10
12849;DHT22;6493;50.928;7.172;2024-01-15T15:01:46;-1.50;66.20
12849;DHT22;6493;50.928;7.172;2024-01-15T15:06:50;-1.50;66.40
12849;DHT22;6493;50.928;7.172;2024-01-15T15:11:55;-1.50;66.50
12849;DHT22;6493;50.928;7.172;2024-01-15T15:16:58;-1.50;66.60
12849;DHT22;6493;50.928;7.172;2024-01-15T15:22:02;-1.50;66.40
12849;DHT22;6493;50.928;7.172;2024-01-15T15:27:07;-1.60;66.40
12849;DHT22;6493;50.928;7.172;2024-01-15T15:32:11;-1.60;66.40
12849;DHT22;6493;50.928;7.172;2024-01-15T15:37:16;-1.50;66.50
12849;DHT22;6493;50.928;7.172;2024-01-15T15:42:21;-1.50;66.40
12849;DHT22;6493;50.928;7.172;2024-01-15T15:47:26;-1.50;66.50
12849;DHT22;6493;50.928;7.172;2024-01-15T15:52:30;-1.60;66.30
12849;DHT22;6493;50.928;7.172;2024-01-15T15:57:35;-1.60;66.30
12849;DHT22;6493;50.928;7.172;2024-01-15T16:02:38;-1.60;66.30
12849;DHT22;6493;50.928;7.172;2024-01-15T16:07:42;-1.60;66.30
12849;DHT22;6493;50.928;7.172;2024-01-15T16:12:47;-1.60;66.30
12849;DHT22;6493;50.928;7.172;2024-01-15T16:17:51;-1.70;66.30
12849;DHT22;6493;50.928;7.172;2024-01-15T16:23:15;-1.70;66.30
12849;DHT22;6493;50.928;7.172;2024-01-15T16:28:41;-1.70;66.30
12849;DHT22;6493;50.928;7.172;2024-01-15T16:33:47;-1.70;66.40
12849;DHT22;6493;50.928;7.172;2024-01-15T16:38:59;-1.80;66.30
12849;DHT22;6493;50.928;7.172;2024-01-15T16:44:05;-1.80;66.40
12849;DHT22;6493;50.928;7.172;2024-01-15T16:49:09;-1.80;66.30
12849;DHT22;6493;50.928;7.172;2024-01-15T16:54:14;-1.80;66.30
12849;DHT22;6493;50.928;7.172;2024-01-15T16:59:18;-1.80;66.20
12849;DHT22;6493;50.928;7.172;2024-01-15T17:04:22;-1.80;66.30
12849;DHT22;6493;50.928;7.172;2024-01-15T17:09:26;-1.80;66.30
12849;DHT22;6493;50.928;7.172;2024-01-15T17:14:34;-1.80;66.50
12849;DHT22;6493;50.928;7.172;2024-01-15T17:19:37;-1.80;66.40
12849;DHT22;6493;50.928;7.172;2024-01-15T17:24:41;-1.80;66.50
12849;DHT22;6493;50.928;7.172;2024-01-15T17:29:46;-1.80;66.40
12849;DHT22;6493;50.928;7.172;2024-01-15T17:34:49;-1.80;66.40
12849;DHT22;6493;50.928;7.172;2024-01-15T17:39:54;-1.80;66.40
12849;DHT22;6493;50.928;7.172;2024-01-15T17:44:59;-1.80;66.30
12849;DHT22;6493;50.928;7.172;2024-01-15T17:50:03;-1.80;66.30
12849;DHT22;6493;50.928;7.172;2024-01-15T17:55:07;-1.80;66.60
12849;DHT22;6493;50.928;7.172;2024-01-15T18:00:14;-1.80;66.40
12849;DHT22;6493;50.928;7.172;2024-01-15T18:05:17;-1.80;66.50
12849;DHT22;6493;50.928;7.172;2024-01-15T18:10:21;-1.80;66.50
12849;DHT22;6493;50.928;7.172;2024-01-15T18:15:26;-1.80;66.40
12849;DHT22;6493;50.928;7.172;2024-01-15T18:20:30;-1.70;66.50
12849;DHT22;6493;50.928;7.172;2024-01-15T18:25:34;-1.70;66.50
12849;DHT22;6493;50.928;7.172;2024-01-15T18:30:39;-1.80;66.30
12849;DHT22;6493;50.928;7.172;2024-01-15T18:35:42;-1.80;66.40
12849;DHT22;6493;50.928;7.172;2024-01-15T18:40:46;-1.80;66.30
12849;DHT22;6493;50.928;7.172;2024-01-15T18:45:51;-1.80;66.30
12849;DHT22;6493;50.928;7.172;2024-01-15T18:50:55;-1.80;67.00
12849;DHT22;6493;50.928;7.172;2024-01-15T18:56:01;-1.80;66.30
12849;DHT22;6493;50.928;7.172;2024-01-15T19:01:06;-1.80;66.30
12849;DHT22;6493;50.928;7.172;2024-01-15T19:06:10;-1.80;66.30
12849;DHT22;6493;50.928;7.172;2024-01-15T19:11:18;-1.80;66.30
12849;DHT22;6493;50.928;7.172;2024-01-15T19:16:23;-1.80;66.30
12849;DHT22;6493;50.928;7.172;2024-01-15T19:21:27;-1.80;66.30
12849;DHT22;6493;50.928;7.172;2024-01-15T19:26:30;-1.80;66.30
12849;DHT22;6493;50.928;7.172;2024-01-15T19:31:36;-1.90;66.20
12849;DHT22;6493;50.928;7.172;2024-01-15T19:36:39;-1.80;66.30
12849;DHT22;6493;50.928;7.172;2024-01-15T19:41:43;-1.90;66.30
12849;DHT22;6493;50.928;7.172;2024-01-15T19:46:52;-1.90;66.20
12849;DHT22;6493;50.928;7.172;2024-01-15T19:51:56;-1.90;66.30
12849;DHT22;6493;50.928;7.172;2024-01-15T19:57:00;-1.90;66.10
12849;DHT22;6493;50.928;7.172;2024-01-15T20:02:05;-1.90;66.00
12849;DHT22;6493;50.928;7.172;2024-01-15T20:07:09;-1.90;66.20
12849;DHT22;6493;50.928;7.172;2024-01-15T20:12:34;-1.90;66.20
12849;DHT22;6493;50.928;7.172;2024-01-15T20:17:58;-1.90;66.20
12849;DHT22;6493;50.928;7.172;2024-01-15T20:23:07;-1.90;66.10
12849;DHT22;6493;50.928;7.172;2024-01-15T20:28:17;-1.90;66.10
12849;DHT22;6493;50.928;7.172;2024-01-15T20:33:30;-1.90;66.20
12849;DHT22;6493;50.928;7.172;2024-01-15T20:38:36;-1.90;66.20
12849;DHT22;6493;50.928;7.172;2024-01-15T20:43:55;-1.90;66.30
12849;DHT22;6493;50.928;7.172;2024-01-15T20:49:04;-1.90;66.20
12849;DHT22;6493;50.928;7.172;2024-01-15T20:54:33;-1.90;66.30
12849;DHT22;6493;50.928;7.172;2024-01-15T21:00:01;-1.90;66.40
12849;DHT22;6493;50.928;7.172;2024-01-15T21:05:08;-2.00;66.20
12849;DHT22;6493;50.928;7.172;2024-01-15T21:10:12;-1.90;66.20
12849;DHT22;6493;50.928;7.172;2024-01-15T21:15:16;-2.00;66.20
12849;DHT22;6493;50.928;7.172;2024-01-15T21:20:21;-2.00;66.20
12849;DHT22;6493;50.928;7.172;2024-01-15T21:25:25;-2.00;66.20
12849;DHT22;6493;50.928;7.172;2024-01-15T21:30:28;-2.00;66.30
12849;DHT22;6493;50.928;7.172;2024-01-15T21:35:36;-2.00;66.20
12849;DHT22;6493;50.928;7.172;2024-01-15T21:40:40;-2.00;66.40
12849;DHT22;6493;50.928;7.172;2024-01-15T21:45:45;-2.00;66.10
12849;DHT22;6493;50.928;7.172;2024-01-15T21:50:50;-2.00;66.10
12849;DHT22;6493;50.928;7.172;2024-01-15T21:55:54;-2.00;66.20
12849;DHT22;6493;50.928;7.172;2024-01-15T22:00:58;-2.00;66.40
12849;DHT22;6493;50.928;7.172;2024-01-15T22:06:04;-2.00;66.40
12849;DHT22;6493;50.928;7.172;2024-01-15T22:11:08;-2.00;66.30
12849;DHT22;6493;50.928;7.172;2024-01-15T22:16:11;-2.00;66.40
12849;DHT22;6493;50.928;7.172;2024-01-15T22:21:17;-2.00;66.30
12849;DHT22;6493;50.928;7.172;2024-01-15T22:26:20;-2.00;66.40
12849;DHT22;6493;50.928;7.172;2024-01-15T22:31:24;-2.00;66.30
12849;DHT22;6493;50.928;7.172;2024-01-15T22:36:29;-1.90;66.50
12849;DHT22;6493;50.928;7.172;2024-01-15T22:41:33;-1.90;66.40
12849;DHT22;6493;50.928;7.172;2024-01-15T22:46:37;-1.90;66.30
12849;DHT22;6493;50.928;7.172;2024-01-15T22:51:42;-1.90;66.20
12849;DHT22;6493;50.928;7.172;2024-01-15T22:56:45;-1.90;66.30
12849;DHT22;6493;50.928;7.172;2024-01-15T23:01:49;-1.90;66.40
12849;DHT22;6493;50.928;7.172;2024-01-15T23:06:54;-1.90;66.50
12849;DHT22;6493;50.928;7.172;2024-01-15T23:11:58;-1.90;67.20
12849;DHT22;6493;50.928;7.172;2024-01-15T23:17:01;-1.90;66.50
12849;DHT22;6493;50.928;7.172;2024-01-15T23:22:06;-1.90;66.50
12849;DHT22;6493;50.928;7.172;2024-01-15T23:27:10;-1.90;66.50
12849;DHT22;6493;50.928;7.172;2024-01-15T23:32:14;-1.90;66.50
12849;DHT22;6493;50.928;7.172;2024-01-15T23:37:19;-1.90;66.40
12849;DHT22;6493;50.928;7.172;2024-01-15T23:42:22;-1.90;66.50
12849;DHT22;6493;50.928;7.172;2024-01-15T23:47:26;-1.90;66.40
12849;DHT22;6493;50.928;7.172;2024-01-15T23:52:31;-1.90;66.40
12849;DHT22;6493;50.928;7.172;2024-01-15T23:57:34;-1.90;66.40
